Aérodrome :
LOGIN :

S'inscrire | Disclaimer

   EN    FR    IT 

 










Légende :    VFR   VFR Marginal   IFR   IFR Intensif   IFR Très Intensif
Visi : 
Plafond : 
>= 8 km
>= 3000ft
5 à 8 km
1000 à 3000 ft
1500m à 5 km
500 à 1000 ft
800 à 1500m
200 à 500 ft
< 800m
< 200 ft
Symboles :   Orages  Brouillard  Fortes neiges  Fortes précipitations  Vent > 20 kt
SIGMETs :   Divers  Orages  Givrage  Turbulence  Onde Orograph.  Cendres Volcan.







- Altitude de l'aérodrome : 935 ft


EBFS - Florennes

DERNIER METAR :
  • 160725Z VRB02KT 9999 FEW025 BKN240 18/14 Q1018 BLU BLU

METARs EXPIRÉS :
  • 160655Z VRB02KT 9999 SCT025 BKN240 16/13 Q1018 BLU BLU
  • 160652Z VRB02KT 9999 SCT025 BKN240 17/14 Q1018 BLU BLU
  • 160625Z VRB02KT 9999 SCT025 BKN240 16/13 Q1018 BLU BLU TEMPO WHT
  • 160555Z VRB02KT 9999 BKN025 15/13 Q1018 BLU BLU TEMPO WHT
  • 160525Z VRB02KT 9999 BKN025 14/13 Q1018 BLU BLU TEMPO WHT
  • 160455Z VRB02KT 9999 BKN025 13/12 Q1018 BLU BLU TEMPO WHT

TAF TAF EBFS
Valide du 16 à 07h jusqu'au 16 à 16h UTC


160541Z 1607/1616 VRB03KT 9999 BKN025
BECMG 1608/1610 20010KT SCT030
Pas de NOTAMs connus pour ce terrain.



MET'MAP, la Météo Aéronautique d'un coup d'oeil ! - Copyright ORBIFLY Décembre 2007 - Disclaimer

ORBIFLY MET'MAP TEAM :

Programmation & Développement : Alexandra Zaïnal
Conception & Développement : Baudouin d'Aumeries
Co-Programmation & Développement : Marc-Olivier Méhu
Soutien technique & logistique : Manuel Goepfert

Contact : metmap@orbifly.com




SOURCES & CREDITS :

   NOAA